sensor_id;sensor_type;location;lat;lon;timestamp;temperature;humidity
8882;DHT22;4477;48.736;9.176;2023-06-14T04:44:55;13.60;56.10
8882;DHT22;4477;48.736;9.176;2023-06-14T04:47:22;12.30;77.80
8882;DHT22;4477;48.736;9.176;2023-06-14T04:49:56;12.60;75.70
8882;DHT22;4477;48.736;9.176;2023-06-14T04:52:23;13.00;74.50
8882;DHT22;4477;48.736;9.176;2023-06-14T04:54:51;13.30;74.10
8882;DHT22;4477;48.736;9.176;2023-06-14T04:57:19;13.60;72.20
8882;DHT22;4477;48.736;9.176;2023-06-14T04:59:47;13.90;70.50
8882;DHT22;4477;48.736;9.176;2023-06-14T05:02:21;14.20;70.50
8882;DHT22;4477;48.736;9.176;2023-06-14T05:04:48;14.50;69.00
8882;DHT22;4477;48.736;9.176;2023-06-14T05:07:17;14.80;68.80
8882;DHT22;4477;48.736;9.176;2023-06-14T05:09:44;15.10;68.80
8882;DHT22;4477;48.736;9.176;2023-06-14T05:12:11;15.50;65.00
8882;DHT22;4477;48.736;9.176;2023-06-14T05:14:38;15.80;63.00
8882;DHT22;4477;48.736;9.176;2023-06-14T05:17:06;16.30;61.70
8882;DHT22;4477;48.736;9.176;2023-06-14T05:19:33;16.50;59.10
8882;DHT22;4477;48.736;9.176;2023-06-14T05:22:01;17.10;58.50
8882;DHT22;4477;48.736;9.176;2023-06-14T05:24:29;17.30;57.00
8882;DHT22;4477;48.736;9.176;2023-06-14T05:26:57;17.30;56.10
8882;DHT22;4477;48.736;9.176;2023-06-14T05:29:24;17.40;55.70
8882;DHT22;4477;48.736;9.176;2023-06-14T05:31:51;17.80;55.20
8882;DHT22;4477;48.736;9.176;2023-06-14T05:34:18;18.10;54.30
8882;DHT22;4477;48.736;9.176;2023-06-14T05:36:45;18.30;54.00
8882;DHT22;4477;48.736;9.176;2023-06-14T05:39:12;18.70;54.20
8882;DHT22;4477;48.736;9.176;2023-06-14T05:41:41;19.10;53.10
8882;DHT22;4477;48.736;9.176;2023-06-14T05:44:09;19.30;52.90
8882;DHT22;4477;48.736;9.176;2023-06-14T05:46:36;19.80;51.30
8882;DHT22;4477;48.736;9.176;2023-06-14T05:49:05;19.90;51.40
8882;DHT22;4477;48.736;9.176;2023-06-14T05:51:32;20.10;52.10
8882;DHT22;4477;48.736;9.176;2023-06-14T05:53:59;20.40;50.80
8882;DHT22;4477;48.736;9.176;2023-06-14T05:56:26;20.80;49.50
8882;DHT22;4477;48.736;9.176;2023-06-14T05:58:54;20.90;49.90
8882;DHT22;4477;48.736;9.176;2023-06-14T06:01:21;21.10;48.20
8882;DHT22;4477;48.736;9.176;2023-06-14T06:03:48;21.40;47.80
8882;DHT22;4477;48.736;9.176;2023-06-14T06:06:15;21.90;46.50
8882;DHT22;4477;48.736;9.176;2023-06-14T06:08:42;22.50;45.90
8882;DHT22;4477;48.736;9.176;2023-06-14T06:11:09;22.80;45.40
8882;DHT22;4477;48.736;9.176;2023-06-14T06:13:36;23.00;44.70
8882;DHT22;4477;48.736;9.176;2023-06-14T06:16:05;23.20;44.70
8882;DHT22;4477;48.736;9.176;2023-06-14T06:18:32;23.40;43.80
8882;DHT22;4477;48.736;9.176;2023-06-14T06:21:00;23.80;43.60
8882;DHT22;4477;48.736;9.176;2023-06-14T06:23:28;24.30;43.70
8882;DHT22;4477;48.736;9.176;2023-06-14T06:25:55;24.60;42.00
8882;DHT22;4477;48.736;9.176;2023-06-14T06:28:22;24.80;41.30
8882;DHT22;4477;48.736;9.176;2023-06-14T06:30:48;24.70;40.80
8882;DHT22;4477;48.736;9.176;2023-06-14T06:33:17;24.40;40.80
8882;DHT22;4477;48.736;9.176;2023-06-14T06:35:44;24.30;42.00
8882;DHT22;4477;48.736;9.176;2023-06-14T06:38:11;24.50;41.20
8882;DHT22;4477;48.736;9.176;2023-06-14T06:40:37;24.60;41.90
8882;DHT22;4477;48.736;9.176;2023-06-14T06:43:04;24.60;42.00
8882;DHT22;4477;48.736;9.176;2023-06-14T06:45:31;25.00;41.00
8882;DHT22;4477;48.736;9.176;2023-06-14T06:47:58;24.80;41.00
8882;DHT22;4477;48.736;9.176;2023-06-14T06:50:26;24.80;41.60
8882;DHT22;4477;48.736;9.176;2023-06-14T06:52:53;24.90;41.70
8882;DHT22;4477;48.736;9.176;2023-06-14T06:55:20;25.40;40.10
8882;DHT22;4477;48.736;9.176;2023-06-14T06:57:47;25.60;40.90
8882;DHT22;4477;48.736;9.176;2023-06-14T07:00:16;25.40;41.30
8882;DHT22;4477;48.736;9.176;2023-06-14T07:02:43;25.40;42.10
8882;DHT22;4477;48.736;9.176;2023-06-14T07:05:10;25.30;40.80
8882;DHT22;4477;48.736;9.176;2023-06-14T07:07:38;25.60;42.30
8882;DHT22;4477;48.736;9.176;2023-06-14T07:10:05;25.80;41.10
8882;DHT22;4477;48.736;9.176;2023-06-14T07:12:33;25.90;40.10
8882;DHT22;4477;48.736;9.176;2023-06-14T07:15:05;25.80;39.70
8882;DHT22;4477;48.736;9.176;2023-06-14T07:17:33;26.10;40.00
8882;DHT22;4477;48.736;9.176;2023-06-14T07:20:02;26.30;38.40
8882;DHT22;4477;48.736;9.176;2023-06-14T07:22:39;25.70;40.50
8882;DHT22;4477;48.736;9.176;2023-06-14T07:25:08;25.80;41.10
8882;DHT22;4477;48.736;9.176;2023-06-14T07:27:35;25.90;41.20
8882;DHT22;4477;48.736;9.176;2023-06-14T07:30:02;25.90;39.50
8882;DHT22;4477;48.736;9.176;2023-06-14T07:32:29;25.80;40.30
8882;DHT22;4477;48.736;9.176;2023-06-14T07:34:56;25.80;40.50
8882;DHT22;4477;48.736;9.176;2023-06-14T07:37:23;26.10;41.30
8882;DHT22;4477;48.736;9.176;2023-06-14T07:39:51;26.10;39.80
8882;DHT22;4477;48.736;9.176;2023-06-14T07:42:18;26.00;39.50
8882;DHT22;4477;48.736;9.176;2023-06-14T07:44:45;26.20;40.80
8882;DHT22;4477;48.736;9.176;2023-06-14T07:47:11;26.30;41.20
8882;DHT22;4477;48.736;9.176;2023-06-14T07:49:38;26.10;40.00
8882;DHT22;4477;48.736;9.176;2023-06-14T07:52:05;26.10;38.10
8882;DHT22;4477;48.736;9.176;2023-06-14T07:54:32;25.80;38.30
8882;DHT22;4477;48.736;9.176;2023-06-14T07:57:00;25.70;40.00
8882;DHT22;4477;48.736;9.176;2023-06-14T07:59:28;25.80;38.30
8882;DHT22;4477;48.736;9.176;2023-06-14T08:01:55;25.80;41.70
8882;DHT22;4477;48.736;9.176;2023-06-14T08:04:21;26.00;40.40
8882;DHT22;4477;48.736;9.176;2023-06-14T08:06:49;26.00;40.80
8882;DHT22;4477;48.736;9.176;2023-06-14T08:09:16;26.00;40.30
8882;DHT22;4477;48.736;9.176;2023-06-14T08:11:43;26.00;41.60
8882;DHT22;4477;48.736;9.176;2023-06-14T08:14:11;26.00;40.50
8882;DHT22;4477;48.736;9.176;2023-06-14T08:16:38;26.20;39.90
8882;DHT22;4477;48.736;9.176;2023-06-14T08:19:05;26.10;41.90
8882;DHT22;4477;48.736;9.176;2023-06-14T08:21:32;26.40;41.30
8882;DHT22;4477;48.736;9.176;2023-06-14T08:23:59;26.50;38.10
8882;DHT22;4477;48.736;9.176;2023-06-14T08:26:27;26.10;40.40
8882;DHT22;4477;48.736;9.176;2023-06-14T08:28:55;25.70;40.50
8882;DHT22;4477;48.736;9.176;2023-06-14T08:31:23;25.80;41.10
8882;DHT22;4477;48.736;9.176;2023-06-14T08:33:50;26.10;43.20
8882;DHT22;4477;48.736;9.176;2023-06-14T08:36:17;26.50;42.70
8882;DHT22;4477;48.736;9.176;2023-06-14T08:38:44;26.50;42.10
8882;DHT22;4477;48.736;9.176;2023-06-14T08:41:12;26.40;42.10
8882;DHT22;4477;48.736;9.176;2023-06-14T08:43:40;26.20;41.30
8882;DHT22;4477;48.736;9.176;2023-06-14T08:46:06;26.40;41.60
8882;DHT22;4477;48.736;9.176;2023-06-14T08:48:35;26.80;41.20
8882;DHT22;4477;48.736;9.176;2023-06-14T08:51:03;26.60;40.10
8882;DHT22;4477;48.736;9.176;2023-06-14T08:53:32;26.50;42.50
8882;DHT22;4477;48.736;9.176;2023-06-14T08:55:59;26.70;42.10
8882;DHT22;4477;48.736;9.176;2023-06-14T08:58:27;26.50;41.70
8882;DHT22;4477;48.736;9.176;2023-06-14T09:00:55;26.50;42.00
8882;DHT22;4477;48.736;9.176;2023-06-14T09:03:22;27.10;43.50
8882;DHT22;4477;48.736;9.176;2023-06-14T09:05:57;27.70;40.40
8882;DHT22;4477;48.736;9.176;2023-06-14T09:08:27;27.80;40.40
8882;DHT22;4477;48.736;9.176;2023-06-14T09:10:56;27.80;38.60
8882;DHT22;4477;48.736;9.176;2023-06-14T09:13:23;27.70;41.50
8882;DHT22;4477;48.736;9.176;2023-06-14T09:15:50;27.60;39.70
8882;DHT22;4477;48.736;9.176;2023-06-14T09:18:17;27.80;40.80
8882;DHT22;4477;48.736;9.176;2023-06-14T09:20:45;27.90;40.90
8882;DHT22;4477;48.736;9.176;2023-06-14T09:23:20;28.20;35.80
8882;DHT22;4477;48.736;9.176;2023-06-14T09:25:48;28.10;38.20
8882;DHT22;4477;48.736;9.176;2023-06-14T09:28:14;28.20;38.50
8882;DHT22;4477;48.736;9.176;2023-06-14T09:30:41;28.10;37.10
8882;DHT22;4477;48.736;9.176;2023-06-14T09:33:08;28.10;40.50
8882;DHT22;4477;48.736;9.176;2023-06-14T09:35:36;28.50;37.30
8882;DHT22;4477;48.736;9.176;2023-06-14T09:38:03;28.40;41.00
8882;DHT22;4477;48.736;9.176;2023-06-14T09:40:34;28.40;36.90
8882;DHT22;4477;48.736;9.176;2023-06-14T09:43:03;28.40;39.70
8882;DHT22;4477;48.736;9.176;2023-06-14T09:45:30;28.50;37.40
8882;DHT22;4477;48.736;9.176;2023-06-14T09:47:58;28.90;40.90
8882;DHT22;4477;48.736;9.176;2023-06-14T09:50:24;28.80;35.70
8882;DHT22;4477;48.736;9.176;2023-06-14T09:52:52;28.20;35.90
8882;DHT22;4477;48.736;9.176;2023-06-14T09:55:25;27.90;39.00
8882;DHT22;4477;48.736;9.176;2023-06-14T09:57:56;28.20;38.50
8882;DHT22;4477;48.736;9.176;2023-06-14T10:00:24;28.80;35.10
8882;DHT22;4477;48.736;9.176;2023-06-14T10:10:20;28.90;33.70
8882;DHT22;4477;48.736;9.176;2023-06-14T10:12:47;27.30;35.00
8882;DHT22;4477;48.736;9.176;2023-06-14T10:38:07;28.00;36.30
8882;DHT22;4477;48.736;9.176;2023-06-14T10:40:34;31.80;29.80
8882;DHT22;4477;48.736;9.176;2023-06-14T10:43:21;31.80;32.70
8882;DHT22;4477;48.736;9.176;2023-06-14T10:46:17;32.00;28.50
8882;DHT22;4477;48.736;9.176;2023-06-14T10:48:48;32.50;28.40
8882;DHT22;4477;48.736;9.176;2023-06-14T10:51:16;32.90;31.30
8882;DHT22;4477;48.736;9.176;2023-06-14T10:53:46;31.60;28.20
8882;DHT22;4477;48.736;9.176;2023-06-14T10:56:24;30.60;33.50
8882;DHT22;4477;48.736;9.176;2023-06-14T10:58:53;30.40;33.00
8882;DHT22;4477;48.736;9.176;2023-06-14T11:01:33;29.20;32.00
8882;DHT22;4477;48.736;9.176;2023-06-14T11:06:47;28.00;34.20
8882;DHT22;4477;48.736;9.176;2023-06-14T11:09:41;27.50;37.80
8882;DHT22;4477;48.736;9.176;2023-06-14T11:12:13;28.10;36.50
8882;DHT22;4477;48.736;9.176;2023-06-14T11:17:12;27.50;34.70
8882;DHT22;4477;48.736;9.176;2023-06-14T11:19:39;27.50;37.70
8882;DHT22;4477;48.736;9.176;2023-06-14T11:22:05;28.60;36.70
8882;DHT22;4477;48.736;9.176;2023-06-14T11:24:32;29.50;31.90
8882;DHT22;4477;48.736;9.176;2023-06-14T11:27:00;29.30;32.00
8882;DHT22;4477;48.736;9.176;2023-06-14T11:29:29;29.90;33.60
8882;DHT22;4477;48.736;9.176;2023-06-14T11:31:56;30.60;32.50
8882;DHT22;4477;48.736;9.176;2023-06-14T11:34:24;31.30;33.90
8882;DHT22;4477;48.736;9.176;2023-06-14T11:36:51;31.50;31.20
8882;DHT22;4477;48.736;9.176;2023-06-14T11:39:24;30.60;30.90
8882;DHT22;4477;48.736;9.176;2023-06-14T11:41:51;28.90;33.20
8882;DHT22;4477;48.736;9.176;2023-06-14T11:44:18;28.10;34.80
8882;DHT22;4477;48.736;9.176;2023-06-14T11:46:45;28.80;37.60
8882;DHT22;4477;48.736;9.176;2023-06-14T11:49:12;30.00;32.60
8882;DHT22;4477;48.736;9.176;2023-06-14T11:51:42;31.00;33.20
8882;DHT22;4477;48.736;9.176;2023-06-14T11:54:10;31.60;31.60
8882;DHT22;4477;48.736;9.176;2023-06-14T11:56:37;32.10;30.70
8882;DHT22;4477;48.736;9.176;2023-06-14T11:59:04;32.20;27.60
8882;DHT22;4477;48.736;9.176;2023-06-14T12:01:31;32.20;30.70
8882;DHT22;4477;48.736;9.176;2023-06-14T12:03:59;32.70;30.60
8882;DHT22;4477;48.736;9.176;2023-06-14T12:06:27;33.20;28.40
8882;DHT22;4477;48.736;9.176;2023-06-14T12:09:00;33.10;29.30
8882;DHT22;4477;48.736;9.176;2023-06-14T12:11:32;33.10;30.10
8882;DHT22;4477;48.736;9.176;2023-06-14T12:14:00;33.60;27.00
8882;DHT22;4477;48.736;9.176;2023-06-14T12:16:31;33.40;28.70
8882;DHT22;4477;48.736;9.176;2023-06-14T12:19:01;33.70;29.80
8882;DHT22;4477;48.736;9.176;2023-06-14T12:21:28;34.00;27.30
8882;DHT22;4477;48.736;9.176;2023-06-14T12:23:55;33.70;27.80
8882;DHT22;4477;48.736;9.176;2023-06-14T12:26:24;33.80;28.60
8882;DHT22;4477;48.736;9.176;2023-06-14T12:28:52;33.70;27.40
8882;DHT22;4477;48.736;9.176;2023-06-14T12:31:19;34.20;28.60
8882;DHT22;4477;48.736;9.176;2023-06-14T12:33:46;33.90;24.20
8882;DHT22;4477;48.736;9.176;2023-06-14T12:36:14;32.50;27.30
8882;DHT22;4477;48.736;9.176;2023-06-14T12:38:42;32.60;30.10
8882;DHT22;4477;48.736;9.176;2023-06-14T12:41:09;33.20;29.60
8882;DHT22;4477;48.736;9.176;2023-06-14T12:43:37;33.90;27.30
8882;DHT22;4477;48.736;9.176;2023-06-14T12:46:04;34.40;27.80
8882;DHT22;4477;48.736;9.176;2023-06-14T12:48:31;35.10;27.30
8882;DHT22;4477;48.736;9.176;2023-06-14T12:50:59;35.50;26.90
8882;DHT22;4477;48.736;9.176;2023-06-14T12:53:26;35.50;25.20
8882;DHT22;4477;48.736;9.176;2023-06-14T12:55:53;35.40;26.10
8882;DHT22;4477;48.736;9.176;2023-06-14T12:58:20;34.40;25.70
8882;DHT22;4477;48.736;9.176;2023-06-14T13:00:48;32.70;28.10
8882;DHT22;4477;48.736;9.176;2023-06-14T13:03:15;31.40;27.50
8882;DHT22;4477;48.736;9.176;2023-06-14T13:05:42;32.00;31.20
8882;DHT22;4477;48.736;9.176;2023-06-14T13:08:09;33.20;28.00
8882;DHT22;4477;48.736;9.176;2023-06-14T13:10:36;34.30;26.10
8882;DHT22;4477;48.736;9.176;2023-06-14T14:17:00;35.10;27.80
8882;DHT22;4477;48.736;9.176;2023-06-14T14:19:26;34.90;24.20
8882;DHT22;4477;48.736;9.176;2023-06-14T14:21:54;33.50;28.20
8882;DHT22;4477;48.736;9.176;2023-06-14T14:24:20;33.40;27.00
8882;DHT22;4477;48.736;9.176;2023-06-14T14:26:49;32.60;27.10
8882;DHT22;4477;48.736;9.176;2023-06-14T14:29:19;31.20;28.60
8882;DHT22;4477;48.736;9.176;2023-06-14T14:31:46;29.80;32.60
8882;DHT22;4477;48.736;9.176;2023-06-14T14:34:12;28.60;32.40
8882;DHT22;4477;48.736;9.176;2023-06-14T14:36:39;28.30;32.20
8882;DHT22;4477;48.736;9.176;2023-06-14T14:39:08;30.40;32.90
8882;DHT22;4477;48.736;9.176;2023-06-14T14:41:34;33.40;27.90
8882;DHT22;4477;48.736;9.176;2023-06-14T14:44:05;36.00;25.40
8882;DHT22;4477;48.736;9.176;2023-06-14T14:46:31;37.50;24.20
8882;DHT22;4477;48.736;9.176;2023-06-14T14:48:58;38.50;25.20
8882;DHT22;4477;48.736;9.176;2023-06-14T14:51:25;39.30;22.10
8882;DHT22;4477;48.736;9.176;2023-06-14T14:53:52;39.60;22.20
8882;DHT22;4477;48.736;9.176;2023-06-14T14:56:19;39.40;24.00
8882;DHT22;4477;48.736;9.176;2023-06-14T14:58:46;39.10;24.40
8882;DHT22;4477;48.736;9.176;2023-06-14T15:01:15;39.50;21.70
8882;DHT22;4477;48.736;9.176;2023-06-14T15:03:42;39.20;22.50
8882;DHT22;4477;48.736;9.176;2023-06-14T15:06:09;38.30;24.30
8882;DHT22;4477;48.736;9.176;2023-06-14T15:08:36;38.70;22.80
8882;DHT22;4477;48.736;9.176;2023-06-14T15:11:03;39.00;21.90
8882;DHT22;4477;48.736;9.176;2023-06-14T15:13:30;39.20;23.20
8882;DHT22;4477;48.736;9.176;2023-06-14T15:15:56;39.40;22.30
8882;DHT22;4477;48.736;9.176;2023-06-14T15:18:25;39.20;20.30
8882;DHT22;4477;48.736;9.176;2023-06-14T15:20:51;38.70;22.10
8882;DHT22;4477;48.736;9.176;2023-06-14T15:23:18;37.10;23.20
8882;DHT22;4477;48.736;9.176;2023-06-14T15:25:46;35.10;25.10
8882;DHT22;4477;48.736;9.176;2023-06-14T15:28:13;34.80;25.10
8882;DHT22;4477;48.736;9.176;2023-06-14T15:30:40;35.90;24.60
8882;DHT22;4477;48.736;9.176;2023-06-14T15:33:07;37.00;24.10
8882;DHT22;4477;48.736;9.176;2023-06-14T15:35:35;37.70;24.40
8882;DHT22;4477;48.736;9.176;2023-06-14T15:38:02;38.40;23.00
8882;DHT22;4477;48.736;9.176;2023-06-14T15:40:29;38.00;23.90
8882;DHT22;4477;48.736;9.176;2023-06-14T15:42:56;36.60;22.40
8882;DHT22;4477;48.736;9.176;2023-06-14T15:45:23;33.70;26.40
8882;DHT22;4477;48.736;9.176;2023-06-14T15:47:49;31.60;27.90
8882;DHT22;4477;48.736;9.176;2023-06-14T15:50:16;29.80;31.70
8882;DHT22;4477;48.736;9.176;2023-06-14T15:52:44;29.40;33.10
8882;DHT22;4477;48.736;9.176;2023-06-14T15:55:12;30.30;31.20
8882;DHT22;4477;48.736;9.176;2023-06-14T15:57:39;32.10;28.10
8882;DHT22;4477;48.736;9.176;2023-06-14T16:00:06;33.70;26.00
8882;DHT22;4477;48.736;9.176;2023-06-14T16:02:33;35.40;25.90
8882;DHT22;4477;48.736;9.176;2023-06-14T16:05:00;36.30;24.40
8882;DHT22;4477;48.736;9.176;2023-06-14T16:07:27;37.50;24.80
8882;DHT22;4477;48.736;9.176;2023-06-14T16:09:55;37.60;24.30
8882;DHT22;4477;48.736;9.176;2023-06-14T16:12:22;37.20;24.70
8882;DHT22;4477;48.736;9.176;2023-06-14T16:14:49;36.50;23.80
8882;DHT22;4477;48.736;9.176;2023-06-14T16:17:16;34.70;26.10
8882;DHT22;4477;48.736;9.176;2023-06-14T16:19:43;32.10;26.50
8882;DHT22;4477;48.736;9.176;2023-06-14T16:22:10;29.90;29.50
8882;DHT22;4477;48.736;9.176;2023-06-14T16:24:37;28.00;32.40
8882;DHT22;4477;48.736;9.176;2023-06-14T16:27:06;26.80;34.80
8882;DHT22;4477;48.736;9.176;2023-06-14T16:29:34;26.00;36.10
8882;DHT22;4477;48.736;9.176;2023-06-14T16:32:01;25.40;37.20
8882;DHT22;4477;48.736;9.176;2023-06-14T16:34:28;25.00;38.80
8882;DHT22;4477;48.736;9.176;2023-06-14T16:36:56;24.70;38.10
8882;DHT22;4477;48.736;9.176;2023-06-14T16:39:23;24.40;38.30
8882;DHT22;4477;48.736;9.176;2023-06-14T16:41:49;24.00;38.20
8882;DHT22;4477;48.736;9.176;2023-06-14T16:44:18;24.00;40.00
8882;DHT22;4477;48.736;9.176;2023-06-14T16:46:44;24.10;39.80
8882;DHT22;4477;48.736;9.176;2023-06-14T16:49:11;23.90;40.20
8882;DHT22;4477;48.736;9.176;2023-06-14T16:51:38;23.80;40.70
8882;DHT22;4477;48.736;9.176;2023-06-14T16:54:05;23.70;42.00
8882;DHT22;4477;48.736;9.176;2023-06-14T16:56:32;23.60;41.00
8882;DHT22;4477;48.736;9.176;2023-06-14T16:58:59;23.50;41.30
8882;DHT22;4477;48.736;9.176;2023-06-14T17:01:27;23.60;41.90
8882;DHT22;4477;48.736;9.176;2023-06-14T17:03:54;23.40;41.20
8882;DHT22;4477;48.736;9.176;2023-06-14T17:06:21;23.80;41.00
8882;DHT22;4477;48.736;9.176;2023-06-14T17:08:49;24.30;40.80
8882;DHT22;4477;48.736;9.176;2023-06-14T17:11:17;24.30;39.50
8882;DHT22;4477;48.736;9.176;2023-06-14T17:13:47;23.90;39.60
8882;DHT22;4477;48.736;9.176;2023-06-14T17:16:14;23.60;41.40
8882;DHT22;4477;48.736;9.176;2023-06-14T17:18:42;23.20;41.40
8882;DHT22;4477;48.736;9.176;2023-06-14T17:21:09;23.00;41.70
8882;DHT22;4477;48.736;9.176;2023-06-14T17:23:36;23.10;42.80
8882;DHT22;4477;48.736;9.176;2023-06-14T17:26:03;23.10;41.30
8882;DHT22;4477;48.736;9.176;2023-06-14T17:28:30;23.10;43.10
8882;DHT22;4477;48.736;9.176;2023-06-14T17:30:57;23.00;41.00
8882;DHT22;4477;48.736;9.176;2023-06-14T17:33:23;23.40;41.80
8882;DHT22;4477;48.736;9.176;2023-06-14T17:35:52;24.80;40.10
8882;DHT22;4477;48.736;9.176;2023-06-14T17:38:19;26.60;37.70
8882;DHT22;4477;48.736;9.176;2023-06-14T17:40:48;28.20;33.90
8882;DHT22;4477;48.736;9.176;2023-06-14T17:43:15;28.90;33.10
8882;DHT22;4477;48.736;9.176;2023-06-14T17:45:42;29.20;33.00
8882;DHT22;4477;48.736;9.176;2023-06-14T17:48:09;29.40;31.80
8882;DHT22;4477;48.736;9.176;2023-06-14T17:50:35;29.20;32.80
8882;DHT22;4477;48.736;9.176;2023-06-14T17:53:06;29.40;32.90
8882;DHT22;4477;48.736;9.176;2023-06-14T17:55:32;28.80;33.00
8882;DHT22;4477;48.736;9.176;2023-06-14T17:58:01;28.90;33.10
8882;DHT22;4477;48.736;9.176;2023-06-14T18:00:28;28.80;33.20
8882;DHT22;4477;48.736;9.176;2023-06-14T18:02:55;28.50;33.10
8882;DHT22;4477;48.736;9.176;2023-06-14T18:05:23;26.80;34.60
8882;DHT22;4477;48.736;9.176;2023-06-14T18:07:51;24.90;38.30
8882;DHT22;4477;48.736;9.176;2023-06-14T18:10:20;23.60;40.70
8882;DHT22;4477;48.736;9.176;2023-06-14T18:12:46;22.70;42.00
8882;DHT22;4477;48.736;9.176;2023-06-14T18:15:13;22.20;43.50
8882;DHT22;4477;48.736;9.176;2023-06-14T18:17:40;21.80;44.30
8882;DHT22;4477;48.736;9.176;2023-06-14T18:20:08;21.50;46.10
8882;DHT22;4477;48.736;9.176;2023-06-14T18:22:35;21.30;45.60
8882;DHT22;4477;48.736;9.176;2023-06-14T18:25:02;21.10;45.70
8882;DHT22;4477;48.736;9.176;2023-06-14T18:27:30;21.10;46.60
8882;DHT22;4477;48.736;9.176;2023-06-14T18:29:57;21.20;46.80
8882;DHT22;4477;48.736;9.176;2023-06-14T18:32:24;21.30;46.20
8882;DHT22;4477;48.736;9.176;2023-06-14T18:34:52;21.10;46.70
8882;DHT22;4477;48.736;9.176;2023-06-14T18:37:19;21.10;47.10
8882;DHT22;4477;48.736;9.176;2023-06-14T18:39:46;21.10;47.50
8882;DHT22;4477;48.736;9.176;2023-06-14T18:42:13;20.70;47.90
8882;DHT22;4477;48.736;9.176;2023-06-14T18:44:41;20.40;48.80
8882;DHT22;4477;48.736;9.176;2023-06-14T18:47:08;20.00;49.70
8882;DHT22;4477;48.736;9.176;2023-06-14T18:49:36;19.80;50.60
8882;DHT22;4477;48.736;9.176;2023-06-14T18:52:04;19.60;50.80
8882;DHT22;4477;48.736;9.176;2023-06-14T18:54:30;19.40;50.80
8882;DHT22;4477;48.736;9.176;2023-06-14T18:56:57;19.30;51.60
8882;DHT22;4477;48.736;9.176;2023-06-14T18:59:25;19.20;51.50
8882;DHT22;4477;48.736;9.176;2023-06-14T19:01:53;19.10;53.10
8882;DHT22;4477;48.736;9.176;2023-06-14T19:04:20;18.90;53.10
8882;DHT22;4477;48.736;9.176;2023-06-14T19:06:47;18.80;53.30
8882;DHT22;4477;48.736;9.176;2023-06-14T19:09:15;18.60;53.80
8882;DHT22;4477;48.736;9.176;2023-06-14T19:11:44;18.50;53.70
8882;DHT22;4477;48.736;9.176;2023-06-14T19:14:13;18.40;55.20
8882;DHT22;4477;48.736;9.176;2023-06-14T19:16:39;18.30;54.50
8882;DHT22;4477;48.736;9.176;2023-06-14T19:19:08;18.30;54.70
8882;DHT22;4477;48.736;9.176;2023-06-14T19:21:35;18.20;55.00
8882;DHT22;4477;48.736;9.176;2023-06-14T19:24:02;18.00;54.50
8882;DHT22;4477;48.736;9.176;2023-06-14T19:26:29;17.90;54.80
8882;DHT22;4477;48.736;9.176;2023-06-14T19:28:57;17.70;55.40
8882;DHT22;4477;48.736;9.176;2023-06-14T19:31:24;17.50;56.60
8882;DHT22;4477;48.736;9.176;2023-06-14T19:33:51;17.30;56.70
8882;DHT22;4477;48.736;9.176;2023-06-14T19:36:20;17.10;57.00
8882;DHT22;4477;48.736;9.176;2023-06-14T19:38:46;17.00;57.00
8882;DHT22;4477;48.736;9.176;2023-06-14T19:41:14;16.80;57.80
8882;DHT22;4477;48.736;9.176;2023-06-14T19:43:41;16.80;57.60
8882;DHT22;4477;48.736;9.176;2023-06-14T19:46:07;16.70;58.50
8882;DHT22;4477;48.736;9.176;2023-06-14T19:48:35;16.50;58.40
8882;DHT22;4477;48.736;9.176;2023-06-14T19:51:02;16.40;59.10
8882;DHT22;4477;48.736;9.176;2023-06-14T19:53:30;16.30;59.30
8882;DHT22;4477;48.736;9.176;2023-06-14T19:55:57;16.10;59.40
8882;DHT22;4477;48.736;9.176;2023-06-14T19:58:23;16.00;60.20
8882;DHT22;4477;48.736;9.176;2023-06-14T20:00:50;15.80;62.30
8882;DHT22;4477;48.736;9.176;2023-06-14T20:03:17;15.60;62.00
8882;DHT22;4477;48.736;9.176;2023-06-14T20:05:44;15.40;63.70
8882;DHT22;4477;48.736;9.176;2023-06-14T20:08:11;15.20;63.20
8882;DHT22;4477;48.736;9.176;2023-06-14T20:10:40;15.10;64.00
8882;DHT22;4477;48.736;9.176;2023-06-14T20:13:06;15.10;65.00
8882;DHT22;4477;48.736;9.176;2023-06-14T20:15:33;15.00;65.90
8882;DHT22;4477;48.736;9.176;2023-06-14T20:18:00;14.90;66.50
